sensor_id;sensor_type;location;lat;lon;timestamp;temperature;humidity
52203;DHT22;38173;52.850;6.970;2022-11-24T00:00:48;6.40;99.90
52203;DHT22;38173;52.850;6.970;2022-11-24T00:03:14;6.40;99.90
52203;DHT22;38173;52.850;6.970;2022-11-24T00:05:40;6.40;99.90
52203;DHT22;38173;52.850;6.970;2022-11-24T00:08:05;6.40;99.90
52203;DHT22;38173;52.850;6.970;2022-11-24T00:10:31;6.40;99.90
52203;DHT22;38173;52.850;6.970;2022-11-24T00:12:59;6.40;99.90
52203;DHT22;38173;52.850;6.970;2022-11-24T00:15:26;6.50;99.90
52203;DHT22;38173;52.850;6.970;2022-11-24T00:17:51;6.50;99.90
52203;DHT22;38173;52.850;6.970;2022-11-24T00:20:18;6.40;99.90
52203;DHT22;38173;52.850;6.970;2022-11-24T00:22:44;6.40;99.90
52203;DHT22;38173;52.850;6.970;2022-11-24T00:25:10;6.40;99.90
52203;DHT22;38173;52.850;6.970;2022-11-24T00:27:36;6.50;99.90
52203;DHT22;38173;52.850;6.970;2022-11-24T00:30:02;6.50;99.90
52203;DHT22;38173;52.850;6.970;2022-11-24T00:32:28;6.50;99.90
52203;DHT22;38173;52.850;6.970;2022-11-24T00:34:54;6.40;99.90
52203;DHT22;38173;52.850;6.970;2022-11-24T00:37:19;6.50;99.90
52203;DHT22;38173;52.850;6.970;2022-11-24T00:39:45;6.50;99.90
52203;DHT22;38173;52.850;6.970;2022-11-24T00:42:11;6.40;99.90
52203;DHT22;38173;52.850;6.970;2022-11-24T00:44:36;6.40;99.90
52203;DHT22;38173;52.850;6.970;2022-11-24T00:47:02;6.40;99.90
52203;DHT22;38173;52.850;6.970;2022-11-24T00:49:28;6.30;99.90
52203;DHT22;38173;52.850;6.970;2022-11-24T00:51:54;6.30;99.90
52203;DHT22;38173;52.850;6.970;2022-11-24T00:54:20;6.30;99.90
52203;DHT22;38173;52.850;6.970;2022-11-24T00:56:46;6.30;99.90
52203;DHT22;38173;52.850;6.970;2022-11-24T00:59:13;6.30;99.90
52203;DHT22;38173;52.850;6.970;2022-11-24T01:01:38;6.30;99.90
52203;DHT22;38173;52.850;6.970;2022-11-24T01:04:04;6.30;99.90
52203;DHT22;38173;52.850;6.970;2022-11-24T01:06:30;6.30;99.90
52203;DHT22;38173;52.850;6.970;2022-11-24T01:08:57;6.30;99.90
52203;DHT22;38173;52.850;6.970;2022-11-24T01:11:24;6.30;99.90
52203;DHT22;38173;52.850;6.970;2022-11-24T01:13:56;6.30;99.90
52203;DHT22;38173;52.850;6.970;2022-11-24T01:16:27;6.30;99.90
52203;DHT22;38173;52.850;6.970;2022-11-24T01:18:53;6.30;99.90
52203;DHT22;38173;52.850;6.970;2022-11-24T01:21:22;6.30;99.90
52203;DHT22;38173;52.850;6.970;2022-11-24T01:23:48;6.30;99.90
52203;DHT22;38173;52.850;6.970;2022-11-24T01:26:15;6.30;99.90
52203;DHT22;38173;52.850;6.970;2022-11-24T01:28:40;6.30;99.90
52203;DHT22;38173;52.850;6.970;2022-11-24T01:31:07;6.30;99.90
52203;DHT22;38173;52.850;6.970;2022-11-24T01:33:33;6.30;99.90
52203;DHT22;38173;52.850;6.970;2022-11-24T01:35:59;6.30;99.90
52203;DHT22;38173;52.850;6.970;2022-11-24T01:38:25;6.30;99.90
52203;DHT22;38173;52.850;6.970;2022-11-24T01:41:01;6.20;99.90
52203;DHT22;38173;52.850;6.970;2022-11-24T01:43:27;6.20;99.90
52203;DHT22;38173;52.850;6.970;2022-11-24T01:45:53;6.20;99.90
52203;DHT22;38173;52.850;6.970;2022-11-24T01:48:29;6.20;99.90
52203;DHT22;38173;52.850;6.970;2022-11-24T01:51:18;6.20;99.90
52203;DHT22;38173;52.850;6.970;2022-11-24T01:53:44;6.20;99.90
52203;DHT22;38173;52.850;6.970;2022-11-24T01:56:10;6.10;99.90
52203;DHT22;38173;52.850;6.970;2022-11-24T01:58:37;6.20;99.90
52203;DHT22;38173;52.850;6.970;2022-11-24T02:01:04;6.20;99.90
52203;DHT22;38173;52.850;6.970;2022-11-24T02:03:32;6.20;99.90
52203;DHT22;38173;52.850;6.970;2022-11-24T02:06:03;6.10;99.90
52203;DHT22;38173;52.850;6.970;2022-11-24T02:09:15;6.20;99.90
52203;DHT22;38173;52.850;6.970;2022-11-24T02:11:23;6.20;99.90
52203;DHT22;38173;52.850;6.970;2022-11-24T02:13:50;6.20;99.90
52203;DHT22;38173;52.850;6.970;2022-11-24T02:16:17;6.10;99.90
52203;DHT22;38173;52.850;6.970;2022-11-24T02:18:44;6.10;99.90
52203;DHT22;38173;52.850;6.970;2022-11-24T02:21:10;6.10;99.90
52203;DHT22;38173;52.850;6.970;2022-11-24T02:23:49;6.20;99.90
52203;DHT22;38173;52.850;6.970;2022-11-24T02:26:38;6.20;99.90
52203;DHT22;38173;52.850;6.970;2022-11-24T02:29:04;6.30;99.90
52203;DHT22;38173;52.850;6.970;2022-11-24T02:31:30;6.30;99.90
52203;DHT22;38173;52.850;6.970;2022-11-24T02:33:57;6.30;99.90
52203;DHT22;38173;52.850;6.970;2022-11-24T02:36:23;6.40;99.90
52203;DHT22;38173;52.850;6.970;2022-11-24T02:38:48;6.40;99.90
52203;DHT22;38173;52.850;6.970;2022-11-24T02:41:15;6.30;99.90
52203;DHT22;38173;52.850;6.970;2022-11-24T02:43:44;6.30;99.90
52203;DHT22;38173;52.850;6.970;2022-11-24T02:46:12;6.30;99.90
52203;DHT22;38173;52.850;6.970;2022-11-24T02:48:39;6.30;99.90
52203;DHT22;38173;52.850;6.970;2022-11-24T02:51:05;6.30;99.90
52203;DHT22;38173;52.850;6.970;2022-11-24T02:53:31;6.30;99.90
52203;DHT22;38173;52.850;6.970;2022-11-24T02:55:57;6.30;99.90
52203;DHT22;38173;52.850;6.970;2022-11-24T02:58:23;6.30;99.90
52203;DHT22;38173;52.850;6.970;2022-11-24T03:00:49;6.30;99.90
52203;DHT22;38173;52.850;6.970;2022-11-24T03:03:21;6.30;99.90
52203;DHT22;38173;52.850;6.970;2022-11-24T03:05:47;6.30;99.90
52203;DHT22;38173;52.850;6.970;2022-11-24T03:08:13;6.30;99.90
52203;DHT22;38173;52.850;6.970;2022-11-24T03:10:39;6.30;99.90
52203;DHT22;38173;52.850;6.970;2022-11-24T03:13:04;6.30;99.90
52203;DHT22;38173;52.850;6.970;2022-11-24T03:15:30;6.30;99.90
52203;DHT22;38173;52.850;6.970;2022-11-24T03:17:56;6.30;99.90
52203;DHT22;38173;52.850;6.970;2022-11-24T03:20:21;6.30;99.90
52203;DHT22;38173;52.850;6.970;2022-11-24T03:22:47;6.30;99.90
52203;DHT22;38173;52.850;6.970;2022-11-24T03:25:12;6.30;99.90
52203;DHT22;38173;52.850;6.970;2022-11-24T03:27:38;6.40;99.90
52203;DHT22;38173;52.850;6.970;2022-11-24T03:30:04;6.40;99.90
52203;DHT22;38173;52.850;6.970;2022-11-24T03:32:30;6.40;99.90
52203;DHT22;38173;52.850;6.970;2022-11-24T03:34:55;6.40;99.90
52203;DHT22;38173;52.850;6.970;2022-11-24T03:37:23;6.50;99.90
52203;DHT22;38173;52.850;6.970;2022-11-24T03:39:48;6.50;99.90
52203;DHT22;38173;52.850;6.970;2022-11-24T03:42:14;6.60;99.90
52203;DHT22;38173;52.850;6.970;2022-11-24T03:44:40;6.60;99.90
52203;DHT22;38173;52.850;6.970;2022-11-24T03:47:06;6.60;99.90
52203;DHT22;38173;52.850;6.970;2022-11-24T03:49:32;6.60;99.90
52203;DHT22;38173;52.850;6.970;2022-11-24T03:51:59;6.60;99.90
52203;DHT22;38173;52.850;6.970;2022-11-24T03:54:25;6.60;99.90
52203;DHT22;38173;52.850;6.970;2022-11-24T03:56:50;6.60;99.90
52203;DHT22;38173;52.850;6.970;2022-11-24T03:59:17;6.50;99.90
52203;DHT22;38173;52.850;6.970;2022-11-24T04:01:43;6.60;99.90
52203;DHT22;38173;52.850;6.970;2022-11-24T04:04:09;6.50;99.90
52203;DHT22;38173;52.850;6.970;2022-11-24T04:06:35;6.50;99.90
52203;DHT22;38173;52.850;6.970;2022-11-24T04:09:01;6.50;99.90
52203;DHT22;38173;52.850;6.970;2022-11-24T04:11:26;6.50;99.90
52203;DHT22;38173;52.850;6.970;2022-11-24T04:14:11;6.50;99.90
52203;DHT22;38173;52.850;6.970;2022-11-24T04:16:36;6.40;99.90
52203;DHT22;38173;52.850;6.970;2022-11-24T04:19:02;6.40;99.90
52203;DHT22;38173;52.850;6.970;2022-11-24T04:21:27;6.40;99.90
52203;DHT22;38173;52.850;6.970;2022-11-24T04:23:53;6.40;99.90
52203;DHT22;38173;52.850;6.970;2022-11-24T04:26:18;6.40;99.90
52203;DHT22;38173;52.850;6.970;2022-11-24T04:28:45;6.40;99.90
52203;DHT22;38173;52.850;6.970;2022-11-24T04:31:11;6.40;99.90
52203;DHT22;38173;52.850;6.970;2022-11-24T04:33:36;6.50;99.90
52203;DHT22;38173;52.850;6.970;2022-11-24T04:36:02;6.50;99.90
52203;DHT22;38173;52.850;6.970;2022-11-24T04:38:31;6.60;99.90
52203;DHT22;38173;52.850;6.970;2022-11-24T04:41:00;6.60;99.90
52203;DHT22;38173;52.850;6.970;2022-11-24T04:43:27;6.60;99.90
52203;DHT22;38173;52.850;6.970;2022-11-24T04:45:53;6.60;99.90
52203;DHT22;38173;52.850;6.970;2022-11-24T04:48:21;6.60;99.90
52203;DHT22;38173;52.850;6.970;2022-11-24T04:50:46;6.60;99.90
52203;DHT22;38173;52.850;6.970;2022-11-24T04:53:15;6.60;99.90
52203;DHT22;38173;52.850;6.970;2022-11-24T04:55:41;6.60;99.90
52203;DHT22;38173;52.850;6.970;2022-11-24T04:58:10;6.60;99.90
52203;DHT22;38173;52.850;6.970;2022-11-24T05:00:36;6.60;99.90
52203;DHT22;38173;52.850;6.970;2022-11-24T05:03:03;6.50;99.90
52203;DHT22;38173;52.850;6.970;2022-11-24T05:05:29;6.50;99.90
52203;DHT22;38173;52.850;6.970;2022-11-24T05:07:55;6.40;99.90
52203;DHT22;38173;52.850;6.970;2022-11-24T05:10:22;6.40;99.90
52203;DHT22;38173;52.850;6.970;2022-11-24T05:13:00;6.40;99.90
52203;DHT22;38173;52.850;6.970;2022-11-24T05:15:26;6.30;99.90
52203;DHT22;38173;52.850;6.970;2022-11-24T05:17:53;6.40;99.90
52203;DHT22;38173;52.850;6.970;2022-11-24T05:20:18;6.40;99.90
52203;DHT22;38173;52.850;6.970;2022-11-24T05:22:44;6.40;99.90
52203;DHT22;38173;52.850;6.970;2022-11-24T05:25:10;6.40;99.90
52203;DHT22;38173;52.850;6.970;2022-11-24T05:27:35;6.40;99.90
52203;DHT22;38173;52.850;6.970;2022-11-24T05:30:01;6.40;99.90
52203;DHT22;38173;52.850;6.970;2022-11-24T05:32:27;6.40;99.90
52203;DHT22;38173;52.850;6.970;2022-11-24T05:34:53;6.40;99.90
52203;DHT22;38173;52.850;6.970;2022-11-24T05:37:19;6.40;99.90
52203;DHT22;38173;52.850;6.970;2022-11-24T05:39:44;6.40;99.90
52203;DHT22;38173;52.850;6.970;2022-11-24T05:42:10;6.40;99.90
52203;DHT22;38173;52.850;6.970;2022-11-24T05:44:54;6.40;99.90
52203;DHT22;38173;52.850;6.970;2022-11-24T05:47:20;6.40;99.90
52203;DHT22;38173;52.850;6.970;2022-11-24T05:49:46;6.40;99.90
52203;DHT22;38173;52.850;6.970;2022-11-24T05:52:11;6.40;99.90
52203;DHT22;38173;52.850;6.970;2022-11-24T05:54:39;6.30;99.90
52203;DHT22;38173;52.850;6.970;2022-11-24T05:57:05;6.30;99.90
52203;DHT22;38173;52.850;6.970;2022-11-24T05:59:30;6.30;99.90
52203;DHT22;38173;52.850;6.970;2022-11-24T06:01:58;6.30;99.90
52203;DHT22;38173;52.850;6.970;2022-11-24T06:04:24;6.30;99.90
52203;DHT22;38173;52.850;6.970;2022-11-24T06:06:49;6.30;99.90
52203;DHT22;38173;52.850;6.970;2022-11-24T06:09:15;6.20;99.90
52203;DHT22;38173;52.850;6.970;2022-11-24T06:11:41;6.30;99.90
52203;DHT22;38173;52.850;6.970;2022-11-24T06:14:08;6.30;99.90
52203;DHT22;38173;52.850;6.970;2022-11-24T06:16:34;6.20;99.90
52203;DHT22;38173;52.850;6.970;2022-11-24T06:19:00;6.20;99.90
52203;DHT22;38173;52.850;6.970;2022-11-24T06:21:26;6.20;99.90
52203;DHT22;38173;52.850;6.970;2022-11-24T06:23:52;6.20;99.90
52203;DHT22;38173;52.850;6.970;2022-11-24T06:26:18;6.20;99.90
52203;DHT22;38173;52.850;6.970;2022-11-24T06:28:44;6.20;99.90
52203;DHT22;38173;52.850;6.970;2022-11-24T06:31:10;6.10;99.90
52203;DHT22;38173;52.850;6.970;2022-11-24T06:33:36;6.10;99.90
52203;DHT22;38173;52.850;6.970;2022-11-24T06:36:03;6.10;99.90
52203;DHT22;38173;52.850;6.970;2022-11-24T06:38:31;6.10;99.90
52203;DHT22;38173;52.850;6.970;2022-11-24T06:40:58;6.10;99.90
52203;DHT22;38173;52.850;6.970;2022-11-24T06:43:26;6.00;99.90
52203;DHT22;38173;52.850;6.970;2022-11-24T06:45:51;6.00;99.90
52203;DHT22;38173;52.850;6.970;2022-11-24T06:48:17;6.00;99.90
52203;DHT22;38173;52.850;6.970;2022-11-24T06:50:43;6.00;99.90
52203;DHT22;38173;52.850;6.970;2022-11-24T06:53:08;6.00;99.90
52203;DHT22;38173;52.850;6.970;2022-11-24T06:55:34;5.90;99.90
52203;DHT22;38173;52.850;6.970;2022-11-24T06:58:00;5.80;99.90
52203;DHT22;38173;52.850;6.970;2022-11-24T07:00:27;5.90;99.90
52203;DHT22;38173;52.850;6.970;2022-11-24T07:02:53;5.90;99.90
52203;DHT22;38173;52.850;6.970;2022-11-24T07:05:19;5.90;99.90
52203;DHT22;38173;52.850;6.970;2022-11-24T07:07:44;5.90;99.90
52203;DHT22;38173;52.850;6.970;2022-11-24T07:10:10;5.90;99.90
52203;DHT22;38173;52.850;6.970;2022-11-24T07:12:35;5.90;99.90
52203;DHT22;38173;52.850;6.970;2022-11-24T07:15:01;6.00;99.90
52203;DHT22;38173;52.850;6.970;2022-11-24T07:17:27;6.00;99.90
52203;DHT22;38173;52.850;6.970;2022-11-24T07:19:54;6.00;99.90
52203;DHT22;38173;52.850;6.970;2022-11-24T07:22:20;6.10;99.90
52203;DHT22;38173;52.850;6.970;2022-11-24T07:24:46;6.10;99.90
52203;DHT22;38173;52.850;6.970;2022-11-24T07:27:11;6.20;99.90
52203;DHT22;38173;52.850;6.970;2022-11-24T07:29:37;6.20;99.90
52203;DHT22;38173;52.850;6.970;2022-11-24T07:32:03;6.30;99.90
52203;DHT22;38173;52.850;6.970;2022-11-24T07:34:29;6.30;99.90
52203;DHT22;38173;52.850;6.970;2022-11-24T07:36:55;6.30;99.90
52203;DHT22;38173;52.850;6.970;2022-11-24T07:39:21;6.30;99.90
52203;DHT22;38173;52.850;6.970;2022-11-24T07:41:46;6.40;99.90
52203;DHT22;38173;52.850;6.970;2022-11-24T07:44:12;6.40;99.90
52203;DHT22;38173;52.850;6.970;2022-11-24T07:46:37;6.40;99.90
52203;DHT22;38173;52.850;6.970;2022-11-24T07:49:03;6.50;99.90
52203;DHT22;38173;52.850;6.970;2022-11-24T07:51:28;6.50;99.90
52203;DHT22;38173;52.850;6.970;2022-11-24T07:53:54;6.60;99.90
52203;DHT22;38173;52.850;6.970;2022-11-24T07:56:19;6.70;99.90
52203;DHT22;38173;52.850;6.970;2022-11-24T07:58:45;6.70;99.90
52203;DHT22;38173;52.850;6.970;2022-11-24T08:01:12;6.80;99.90
52203;DHT22;38173;52.850;6.970;2022-11-24T08:03:38;6.90;99.90
52203;DHT22;38173;52.850;6.970;2022-11-24T08:06:04;6.90;99.90
52203;DHT22;38173;52.850;6.970;2022-11-24T08:08:29;6.90;99.90
52203;DHT22;38173;52.850;6.970;2022-11-24T08:10:57;7.00;99.90
52203;DHT22;38173;52.850;6.970;2022-11-24T08:13:23;7.00;99.90
52203;DHT22;38173;52.850;6.970;2022-11-24T08:15:48;7.00;99.90
52203;DHT22;38173;52.850;6.970;2022-11-24T08:18:14;7.00;99.90
52203;DHT22;38173;52.850;6.970;2022-11-24T08:20:39;7.00;99.90
52203;DHT22;38173;52.850;6.970;2022-11-24T08:23:05;7.00;99.90
52203;DHT22;38173;52.850;6.970;2022-11-24T08:25:31;7.00;99.90
52203;DHT22;38173;52.850;6.970;2022-11-24T08:27:57;7.00;99.90
52203;DHT22;38173;52.850;6.970;2022-11-24T08:30:23;7.10;99.90
52203;DHT22;38173;52.850;6.970;2022-11-24T08:32:49;7.10;99.90
52203;DHT22;38173;52.850;6.970;2022-11-24T08:35:14;7.10;99.90
52203;DHT22;38173;52.850;6.970;2022-11-24T08:37:40;7.10;99.90
52203;DHT22;38173;52.850;6.970;2022-11-24T08:40:06;7.10;99.90
52203;DHT22;38173;52.850;6.970;2022-11-24T08:42:31;7.10;99.90
52203;DHT22;38173;52.850;6.970;2022-11-24T08:44:57;7.20;99.90
52203;DHT22;38173;52.850;6.970;2022-11-24T08:47:23;7.30;99.90
52203;DHT22;38173;52.850;6.970;2022-11-24T08:49:48;7.30;99.90
52203;DHT22;38173;52.850;6.970;2022-11-24T08:52:15;7.40;99.90
52203;DHT22;38173;52.850;6.970;2022-11-24T08:54:40;7.50;99.90
52203;DHT22;38173;52.850;6.970;2022-11-24T08:57:09;7.50;99.90
52203;DHT22;38173;52.850;6.970;2022-11-24T08:59:34;7.60;99.90
52203;DHT22;38173;52.850;6.970;2022-11-24T09:02:00;7.60;99.90
52203;DHT22;38173;52.850;6.970;2022-11-24T09:04:25;7.70;99.90
52203;DHT22;38173;52.850;6.970;2022-11-24T09:06:51;7.70;99.90
52203;DHT22;38173;52.850;6.970;2022-11-24T09:09:17;7.70;99.90
52203;DHT22;38173;52.850;6.970;2022-11-24T09:11:42;7.80;99.90
52203;DHT22;38173;52.850;6.970;2022-11-24T09:14:08;7.80;99.90
52203;DHT22;38173;52.850;6.970;2022-11-24T09:16:33;7.80;99.90
52203;DHT22;38173;52.850;6.970;2022-11-24T09:19:00;7.80;99.90
52203;DHT22;38173;52.850;6.970;2022-11-24T09:21:26;7.90;99.90
52203;DHT22;38173;52.850;6.970;2022-11-24T09:23:52;7.90;99.90
52203;DHT22;38173;52.850;6.970;2022-11-24T09:28:47;7.90;99.90
52203;DHT22;38173;52.850;6.970;2022-11-24T09:31:14;8.00;99.90
52203;DHT22;38173;52.850;6.970;2022-11-24T09:33:42;8.00;99.90
52203;DHT22;38173;52.850;6.970;2022-11-24T09:36:08;8.10;99.90
52203;DHT22;38173;52.850;6.970;2022-11-24T09:38:34;8.10;99.90
52203;DHT22;38173;52.850;6.970;2022-11-24T09:43:45;8.20;99.90
52203;DHT22;38173;52.850;6.970;2022-11-24T09:48:39;8.30;99.90
52203;DHT22;38173;52.850;6.970;2022-11-24T09:51:07;8.20;99.90
52203;DHT22;38173;52.850;6.970;2022-11-24T09:56:22;8.30;99.90
52203;DHT22;38173;52.850;6.970;2022-11-24T09:58:53;8.20;99.90
52203;DHT22;38173;52.850;6.970;2022-11-24T10:03:50;8.30;99.90
52203;DHT22;38173;52.850;6.970;2022-11-24T10:11:30;8.40;99.90
52203;DHT22;38173;52.850;6.970;2022-11-24T10:16:56;8.50;99.90
52203;DHT22;38173;52.850;6.970;2022-11-24T10:19:30;8.60;99.90
52203;DHT22;38173;52.850;6.970;2022-11-24T10:27:01;8.60;99.90
52203;DHT22;38173;52.850;6.970;2022-11-24T10:29:32;8.60;99.90
52203;DHT22;38173;52.850;6.970;2022-11-24T10:31:58;8.60;99.90
52203;DHT22;38173;52.850;6.970;2022-11-24T10:36:56;8.60;99.90
52203;DHT22;38173;52.850;6.970;2022-11-24T10:39:30;8.70;99.90
52203;DHT22;38173;52.850;6.970;2022-11-24T10:41:59;8.70;99.90
52203;DHT22;38173;52.850;6.970;2022-11-24T10:44:27;8.70;99.90
52203;DHT22;38173;52.850;6.970;2022-11-24T10:46:52;8.60;99.90
52203;DHT22;38173;52.850;6.970;2022-11-24T10:49:19;8.60;99.90
52203;DHT22;38173;52.850;6.970;2022-11-24T10:51:50;8.70;99.90
52203;DHT22;38173;52.850;6.970;2022-11-24T10:54:21;8.70;99.90
52203;DHT22;38173;52.850;6.970;2022-11-24T10:56:47;8.80;99.90
52203;DHT22;38173;52.850;6.970;2022-11-24T11:01:53;8.90;99.90
52203;DHT22;38173;52.850;6.970;2022-11-24T11:06:50;9.00;99.90
52203;DHT22;38173;52.850;6.970;2022-11-24T11:09:17;9.00;99.90
52203;DHT22;38173;52.850;6.970;2022-11-24T11:11:44;9.00;99.90
52203;DHT22;38173;52.850;6.970;2022-11-24T11:14:12;9.00;99.90
52203;DHT22;38173;52.850;6.970;2022-11-24T11:16:53;9.00;99.90
52203;DHT22;38173;52.850;6.970;2022-11-24T11:24:36;9.20;99.90
52203;DHT22;38173;52.850;6.970;2022-11-24T11:27:23;9.20;99.90
52203;DHT22;38173;52.850;6.970;2022-11-24T11:29:48;9.30;99.90
52203;DHT22;38173;52.850;6.970;2022-11-24T11:32:16;9.50;99.90
52203;DHT22;38173;52.850;6.970;2022-11-24T11:34:42;9.60;99.90
52203;DHT22;38173;52.850;6.970;2022-11-24T11:37:07;9.70;99.90
52203;DHT22;38173;52.850;6.970;2022-11-24T11:39:37;9.80;99.90
52203;DHT22;38173;52.850;6.970;2022-11-24T11:49:51;9.80;99.90
52203;DHT22;38173;52.850;6.970;2022-11-24T12:10:44;9.80;99.90
52203;DHT22;38173;52.850;6.970;2022-11-24T12:15:57;9.80;99.90
52203;DHT22;38173;52.850;6.970;2022-11-24T12:18:34;9.80;99.90
52203;DHT22;38173;52.850;6.970;2022-11-24T12:23:47;9.80;99.90
52203;DHT22;38173;52.850;6.970;2022-11-24T12:29:08;9.80;99.90
52203;DHT22;38173;52.850;6.970;2022-11-24T12:31:52;9.80;99.90
52203;DHT22;38173;52.850;6.970;2022-11-24T12:39:34;10.00;99.90
52203;DHT22;38173;52.850;6.970;2022-11-24T12:52:35;10.00;99.90
52203;DHT22;38173;52.850;6.970;2022-11-24T12:55:07;10.00;99.90
52203;DHT22;38173;52.850;6.970;2022-11-24T12:57:41;10.00;99.90
52203;DHT22;38173;52.850;6.970;2022-11-24T13:02:46;10.00;99.90
52203;DHT22;38173;52.850;6.970;2022-11-24T13:07:48;10.00;99.90
52203;DHT22;38173;52.850;6.970;2022-11-24T13:15:21;10.10;99.90
52203;DHT22;38173;52.850;6.970;2022-11-24T13:17:47;10.10;99.90
52203;DHT22;38173;52.850;6.970;2022-11-24T13:22:45;10.10;99.90
52203;DHT22;38173;52.850;6.970;2022-11-24T13:25:19;10.10;99.90
52203;DHT22;38173;52.850;6.970;2022-11-24T13:27:45;10.10;99.90
52203;DHT22;38173;52.850;6.970;2022-11-24T13:35:28;10.10;99.90
52203;DHT22;38173;52.850;6.970;2022-11-24T13:37:54;10.10;99.90
52203;DHT22;38173;52.850;6.970;2022-11-24T13:53:26;10.00;99.90
52203;DHT22;38173;52.850;6.970;2022-11-24T13:55:55;10.00;99.90
52203;DHT22;38173;52.850;6.970;2022-11-24T14:03:25;9.90;99.90
52203;DHT22;38173;52.850;6.970;2022-11-24T14:05:51;9.90;99.90
52203;DHT22;38173;52.850;6.970;2022-11-24T14:08:19;10.00;99.90
52203;DHT22;38173;52.850;6.970;2022-11-24T14:10:46;10.00;99.90
52203;DHT22;38173;52.850;6.970;2022-11-24T14:13:27;10.10;99.90
52203;DHT22;38173;52.850;6.970;2022-11-24T14:18:24;10.10;99.90
52203;DHT22;38173;52.850;6.970;2022-11-24T14:20:51;10.00;99.90
52203;DHT22;38173;52.850;6.970;2022-11-24T14:23:17;10.00;99.90
52203;DHT22;38173;52.850;6.970;2022-11-24T14:25:48;10.00;99.90
52203;DHT22;38173;52.850;6.970;2022-11-24T14:28:24;10.00;99.90
52203;DHT22;38173;52.850;6.970;2022-11-24T14:30:51;9.90;99.90
52203;DHT22;38173;52.850;6.970;2022-11-24T14:33:30;9.90;99.90
52203;DHT22;38173;52.850;6.970;2022-11-24T14:35:55;9.80;99.90
52203;DHT22;38173;52.850;6.970;2022-11-24T14:38:21;9.70;99.90
52203;DHT22;38173;52.850;6.970;2022-11-24T14:40:47;9.60;99.90
52203;DHT22;38173;52.850;6.970;2022-11-24T14:43:18;9.50;99.90
52203;DHT22;38173;52.850;6.970;2022-11-24T14:45:52;9.40;99.90
52203;DHT22;38173;52.850;6.970;2022-11-24T14:48:19;9.30;99.90
52203;DHT22;38173;52.850;6.970;2022-11-24T14:50:47;9.30;99.90
52203;DHT22;38173;52.850;6.970;2022-11-24T14:53:14;9.20;99.90
52203;DHT22;38173;52.850;6.970;2022-11-24T14:55:40;9.10;99.90
52203;DHT22;38173;52.850;6.970;2022-11-24T14:58:52;9.10;99.90
52203;DHT22;38173;52.850;6.970;2022-11-24T15:01:09;9.00;99.90
52203;DHT22;38173;52.850;6.970;2022-11-24T15:03:36;8.90;99.90
52203;DHT22;38173;52.850;6.970;2022-11-24T15:06:02;8.80;99.90
52203;DHT22;38173;52.850;6.970;2022-11-24T15:08:30;8.60;99.90
52203;DHT22;38173;52.850;6.970;2022-11-24T15:11:00;8.50;99.90
52203;DHT22;38173;52.850;6.970;2022-11-24T15:13:26;8.50;99.90
52203;DHT22;38173;52.850;6.970;2022-11-24T15:18:26;8.40;99.90
52203;DHT22;38173;52.850;6.970;2022-11-24T15:20:53;8.30;99.90
52203;DHT22;38173;52.850;6.970;2022-11-24T15:23:23;8.30;99.90
52203;DHT22;38173;52.850;6.970;2022-11-24T15:25:50;8.20;99.90
52203;DHT22;38173;52.850;6.970;2022-11-24T15:28:16;8.20;99.90
52203;DHT22;38173;52.850;6.970;2022-11-24T15:30:41;8.10;99.90
52203;DHT22;38173;52.850;6.970;2022-11-24T15:33:11;8.00;99.90
52203;DHT22;38173;52.850;6.970;2022-11-24T15:35:37;7.90;99.90
52203;DHT22;38173;52.850;6.970;2022-11-24T15:38:04;7.80;99.90
52203;DHT22;38173;52.850;6.970;2022-11-24T15:40:30;7.80;99.90
52203;DHT22;38173;52.850;6.970;2022-11-24T15:42:55;7.70;99.90
52203;DHT22;38173;52.850;6.970;2022-11-24T15:45:22;7.60;99.90
52203;DHT22;38173;52.850;6.970;2022-11-24T15:47:48;7.60;99.90
52203;DHT22;38173;52.850;6.970;2022-11-24T15:50:14;7.50;99.90
52203;DHT22;38173;52.850;6.970;2022-11-24T15:52:40;7.50;99.90
52203;DHT22;38173;52.850;6.970;2022-11-24T15:55:17;7.40;99.90
52203;DHT22;38173;52.850;6.970;2022-11-24T15:57:42;7.50;99.90
52203;DHT22;38173;52.850;6.970;2022-11-24T16:00:18;7.40;99.90
52203;DHT22;38173;52.850;6.970;2022-11-24T16:02:44;7.40;99.90
52203;DHT22;38173;52.850;6.970;2022-11-24T16:05:11;7.40;99.90
52203;DHT22;38173;52.850;6.970;2022-11-24T16:07:37;7.40;99.90
52203;DHT22;38173;52.850;6.970;2022-11-24T16:10:03;7.30;99.90
52203;DHT22;38173;52.850;6.970;2022-11-24T16:12:28;7.30;99.90
52203;DHT22;38173;52.850;6.970;2022-11-24T16:14:54;7.30;99.90
52203;DHT22;38173;52.850;6.970;2022-11-24T16:17:19;7.20;99.90
52203;DHT22;38173;52.850;6.970;2022-11-24T16:19:45;7.20;99.90
52203;DHT22;38173;52.850;6.970;2022-11-24T16:22:10;7.10;99.90
52203;DHT22;38173;52.850;6.970;2022-11-24T16:24:36;7.00;99.90
52203;DHT22;38173;52.850;6.970;2022-11-24T16:27:02;7.00;99.90
52203;DHT22;38173;52.850;6.970;2022-11-24T16:29:27;7.00;99.90
52203;DHT22;38173;52.850;6.970;2022-11-24T16:31:53;7.00;99.90
52203;DHT22;38173;52.850;6.970;2022-11-24T16:34:18;6.90;99.90
52203;DHT22;38173;52.850;6.970;2022-11-24T16:36:44;6.90;99.90
52203;DHT22;38173;52.850;6.970;2022-11-24T16:39:09;6.80;99.90
52203;DHT22;38173;52.850;6.970;2022-11-24T16:41:35;6.80;99.90
52203;DHT22;38173;52.850;6.970;2022-11-24T16:44:01;6.80;99.90
52203;DHT22;38173;52.850;6.970;2022-11-24T16:46:26;6.70;99.90
52203;DHT22;38173;52.850;6.970;2022-11-24T16:48:52;6.70;99.90
52203;DHT22;38173;52.850;6.970;2022-11-24T16:51:20;6.60;99.90
52203;DHT22;38173;52.850;6.970;2022-11-24T16:53:46;6.60;99.90
52203;DHT22;38173;52.850;6.970;2022-11-24T16:56:11;6.60;99.90
52203;DHT22;38173;52.850;6.970;2022-11-24T16:58:39;6.50;99.90
52203;DHT22;38173;52.850;6.970;2022-11-24T17:01:11;6.50;99.90
52203;DHT22;38173;52.850;6.970;2022-11-24T17:03:38;6.40;99.90
52203;DHT22;38173;52.850;6.970;2022-11-24T17:06:05;6.40;99.90
52203;DHT22;38173;52.850;6.970;2022-11-24T17:08:32;6.40;99.90
52203;DHT22;38173;52.850;6.970;2022-11-24T17:11:03;6.30;99.90
52203;DHT22;38173;52.850;6.970;2022-11-24T17:13:30;6.30;99.90
52203;DHT22;38173;52.850;6.970;2022-11-24T17:16:01;6.30;99.90
52203;DHT22;38173;52.850;6.970;2022-11-24T17:18:27;6.30;99.90
52203;DHT22;38173;52.850;6.970;2022-11-24T17:20:55;6.30;99.90
52203;DHT22;38173;52.850;6.970;2022-11-24T17:23:21;6.30;99.90
52203;DHT22;38173;52.850;6.970;2022-11-24T17:25:46;6.20;99.90
52203;DHT22;38173;52.850;6.970;2022-11-24T17:28:13;6.30;99.90
52203;DHT22;38173;52.850;6.970;2022-11-24T17:30:38;6.30;99.90
52203;DHT22;38173;52.850;6.970;2022-11-24T17:33:04;6.30;99.90
52203;DHT22;38173;52.850;6.970;2022-11-24T17:35:29;6.30;99.90
52203;DHT22;38173;52.850;6.970;2022-11-24T17:37:55;6.30;99.90
52203;DHT22;38173;52.850;6.970;2022-11-24T17:40:21;6.30;99.90
52203;DHT22;38173;52.850;6.970;2022-11-24T17:42:47;6.30;99.90
52203;DHT22;38173;52.850;6.970;2022-11-24T17:45:12;6.30;99.90
52203;DHT22;38173;52.850;6.970;2022-11-24T17:47:38;6.30;99.90
52203;DHT22;38173;52.850;6.970;2022-11-24T17:50:03;6.30;99.90
52203;DHT22;38173;52.850;6.970;2022-11-24T17:52:29;6.30;99.90
52203;DHT22;38173;52.850;6.970;2022-11-24T17:54:55;6.30;99.90